Time;durP1;ratioP1;P1;durP2;ratioP2;P2;SDS_P1;SDS_P2;PMS_P1;PMS_P2;Temp;Humidity;BMP_temperature;BMP_pressure;BME280_temperature;BME280_humidity;BME280_pressure;Samples;Min_cycle;Max_cycle;Signal;HPM_P1;HPM_P2
2022/05/31 00:02:11;;;;;;;128.00;122.50;;;8.70;99.90;;;;;;5063544;28;20549;-80
2022/05/31 00:04:38;;;;;;;79.03;75.73;;;8.80;99.90;;;;;;5063358;28;20461;-80
2022/05/31 00:07:05;;;;;;;51.57;48.63;;;8.90;99.90;;;;;;5063246;28;20458;-80
2022/05/31 00:09:35;;;;;;;42.87;40.67;;;8.90;99.90;;;;;;5062304;28;20455;-80
2022/05/31 00:12:03;;;;;;;27.93;26.00;;;9.00;99.90;;;;;;5063303;28;20482;-80
2022/05/31 00:14:29;;;;;;;28.10;18.97;;;9.00;99.90;;;;;;5063075;28;20948;-80
2022/05/31 00:16:56;;;;;;;24.13;22.47;;;9.00;99.90;;;;;;5062760;28;20473;-80
2022/05/31 00:19:23;;;;;;;28.37;25.10;;;9.00;99.90;;;;;;5063446;28;20451;-80
2022/05/31 00:21:53;;;;;;;29.67;27.57;;;8.90;99.90;;;;;;5063250;28;20479;-79
2022/05/31 00:24:22;;;;;;;27.10;25.40;;;8.90;99.90;;;;;;5063805;28;20435;-80
2022/05/31 00:26:50;;;;;;;32.80;30.63;;;8.80;99.90;;;;;;5062531;28;20459;-81
2022/05/31 00:29:17;;;;;;;47.60;45.10;;;8.80;99.90;;;;;;5062558;28;20451;-81
2022/05/31 00:31:47;;;;;;;118.53;113.77;;;8.80;99.90;;;;;;5063293;28;20471;-81
2022/05/31 00:34:15;;;;;;;120.43;115.90;;;8.90;99.90;;;;;;5063385;28;20837;-81
2022/05/31 00:36:45;;;;;;;98.00;93.97;;;8.80;99.90;;;;;;5063530;28;20455;-80
2022/05/31 00:39:11;;;;;;;89.87;86.17;;;8.80;99.90;;;;;;5062524;28;20455;-81
2022/05/31 00:41:39;;;;;;;108.93;104.43;;;8.80;99.90;;;;;;5063417;28;20486;-80
2022/05/31 00:44:09;;;;;;;93.73;89.53;;;8.80;99.90;;;;;;5063429;28;20466;-80
2022/05/31 00:46:44;;;;;;;86.20;82.40;;;8.90;99.90;;;;;;5063250;28;20451;-80
2022/05/31 00:49:14;;;;;;;96.27;92.00;;;8.80;99.90;;;;;;5062992;28;20431;-81
2022/05/31 00:51:43;;;;;;;74.47;70.97;;;8.80;99.90;;;;;;5062884;28;20487;-81
2022/05/31 00:54:14;;;;;;;97.40;93.23;;;8.70;99.90;;;;;;5063181;28;20469;-80
2022/05/31 00:56:41;;;;;;;114.00;109.30;;;8.60;99.90;;;;;;5063143;28;20465;-81
2022/05/31 00:59:15;;;;;;;122.97;118.30;;;8.70;99.90;;;;;;5058987;28;20458;-80
2022/05/31 01:01:47;;;;;;;115.47;110.13;;;8.60;99.90;;;;;;5059862;28;20489;-80
2022/05/31 01:04:15;;;;;;;77.87;74.47;;;8.60;99.90;;;;;;5059398;28;20980;-81
2022/05/31 01:06:42;;;;;;;96.40;92.23;;;8.70;99.90;;;;;;5059891;28;20491;-80
2022/05/31 01:09:08;;;;;;;140.87;135.47;;;8.70;99.90;;;;;;5058979;28;20468;-81
2022/05/31 01:11:39;;;;;;;105.60;101.20;;;8.70;99.90;;;;;;5060047;28;20478;-81
2022/05/31 01:14:07;;;;;;;71.87;68.33;;;8.70;99.90;;;;;;5059292;28;20448;-80
2022/05/31 01:16:35;;;;;;;102.70;98.20;;;8.70;99.90;;;;;;5059578;28;20451;-83
2022/05/31 01:19:02;;;;;;;129.50;124.67;;;8.70;99.90;;;;;;5059103;28;20447;-81
2022/05/31 01:21:30;;;;;;;83.23;79.30;;;8.80;99.90;;;;;;5059222;28;20479;-80
2022/05/31 01:24:06;;;;;;;75.27;71.07;;;8.90;99.90;;;;;;5059537;28;20468;-80
2022/05/31 01:26:42;;;;;;;83.47;78.97;;;9.00;99.90;;;;;;5058463;28;20446;-81
2022/05/31 01:29:18;;;;;;;86.03;82.23;;;8.80;99.90;;;;;;5058912;28;20442;-82
2022/05/31 01:31:50;;;;;;;55.70;53.00;;;8.90;99.90;;;;;;5060007;28;20763;-80
2022/05/31 01:34:19;;;;;;;39.43;37.00;;;8.80;99.90;;;;;;5060282;28;20435;-81
2022/05/31 01:36:49;;;;;;;46.67;44.13;;;8.80;99.90;;;;;;5060111;28;20454;-81
2022/05/31 01:39:21;;;;;;;49.77;47.37;;;8.70;99.90;;;;;;5059061;28;20458;-81
2022/05/31 01:41:56;;;;;;;48.30;45.77;;;8.80;99.90;;;;;;5041207;28;20852;-80
2022/05/31 01:44:27;;;;;;;58.63;55.83;;;8.70;99.90;;;;;;5060439;28;20489;-81
2022/05/31 01:46:57;;;;;;;67.40;64.30;;;8.70;99.90;;;;;;5059890;28;20533;-81
2022/05/31 01:49:27;;;;;;;100.47;96.57;;;8.70;99.90;;;;;;5059830;28;20452;-82
2022/05/31 01:51:58;;;;;;;131.07;126.10;;;8.70;99.90;;;;;;5057885;28;20487;-80
2022/05/31 01:54:27;;;;;;;196.43;189.30;;;8.70;99.90;;;;;;5060322;28;20475;-81
2022/05/31 01:57:01;;;;;;;244.23;235.73;;;8.70;99.90;;;;;;5041980;28;20479;-82
2022/05/31 01:59:32;;;;;;;281.87;272.03;;;8.80;99.90;;;;;;5059343;28;20803;-82
2022/05/31 02:02:03;;;;;;;309.37;298.57;;;8.80;99.90;;;;;;5059240;28;20506;-82
2022/05/31 02:04:32;;;;;;;301.97;290.17;;;8.90;99.90;;;;;;5059239;28;20451;-81
2022/05/31 02:07:15;;;;;;;199.20;191.90;;;8.90;99.90;;;;;;5059133;28;20458;-82
2022/05/31 02:09:43;;;;;;;150.70;145.10;;;8.90;99.90;;;;;;5058351;28;20467;-82
2022/05/31 02:12:12;;;;;;;139.43;133.37;;;9.00;99.90;;;;;;5059511;28;20960;-81
2022/05/31 02:14:39;;;;;;;148.57;142.97;;;9.00;99.90;;;;;;5059206;28;20473;-81
2022/05/31 02:17:07;;;;;;;113.00;107.80;;;9.10;99.90;;;;;;5058892;28;20458;-81
2022/05/31 02:19:34;;;;;;;115.17;110.83;;;9.10;99.90;;;;;;5059688;28;20451;-81
2022/05/31 02:22:03;;;;;;;143.57;138.27;;;9.10;99.90;;;;;;5059015;28;20490;-81
2022/05/31 02:24:32;;;;;;;115.53;110.97;;;9.30;99.90;;;;;;5060036;28;20460;-82
2022/05/31 02:26:59;;;;;;;113.87;109.20;;;9.30;99.90;;;;;;5058362;28;20458;-81
2022/05/31 02:29:28;;;;;;;113.97;109.70;;;9.40;99.90;;;;;;5059181;28;20451;-82
2022/05/31 02:31:57;;;;;;;148.30;142.47;;;9.30;99.90;;;;;;5058727;28;20471;-81
2022/05/31 02:34:31;;;;;;;207.27;200.00;;;9.30;99.90;;;;;;5059133;28;20448;-82
2022/05/31 02:36:58;;;;;;;139.57;134.20;;;9.20;99.90;;;;;;5058884;28;20444;-81
2022/05/31 02:39:25;;;;;;;112.30;107.90;;;9.30;99.90;;;;;;5058775;28;20833;-81
2022/05/31 02:41:53;;;;;;;94.50;90.70;;;9.30;99.90;;;;;;5059582;28;20475;-81
2022/05/31 02:44:21;;;;;;;64.00;61.13;;;9.30;99.90;;;;;;5058469;28;20470;-81
2022/05/31 02:46:48;;;;;;;45.83;43.10;;;9.30;99.90;;;;;;5058613;28;20455;-82
2022/05/31 02:49:15;;;;;;;32.43;30.57;;;9.30;99.90;;;;;;5058626;28;20952;-81
2022/05/31 02:51:43;;;;;;;31.03;29.13;;;9.40;99.90;;;;;;5058729;28;20486;-81
2022/05/31 02:54:12;;;;;;;27.57;25.67;;;9.30;99.90;;;;;;5058974;28;20456;-81
2022/05/31 02:56:39;;;;;;;22.83;20.80;;;9.40;99.90;;;;;;5058456;28;20903;-81
2022/05/31 02:59:07;;;;;;;23.63;21.90;;;9.40;99.90;;;;;;5057951;28;20482;-82
2022/05/31 03:01:37;;;;;;;38.33;35.97;;;9.40;99.90;;;;;;5058313;28;20475;-81
2022/05/31 03:04:05;;;;;;;41.07;38.97;;;9.30;99.90;;;;;;5058426;28;20490;-81
2022/05/31 03:06:32;;;;;;;29.43;26.90;;;9.30;99.90;;;;;;5057598;28;20455;-81
2022/05/31 03:08:59;;;;;;;17.33;15.97;;;9.30;99.90;;;;;;5058156;28;20474;-81
2022/05/31 03:11:30;;;;;;;15.90;14.37;;;9.40;99.90;;;;;;5057996;28;20467;-82
2022/05/31 03:14:00;;;;;;;23.73;21.90;;;9.40;99.90;;;;;;5058768;28;20453;-81
2022/05/31 03:16:29;;;;;;;24.10;22.33;;;9.50;99.90;;;;;;5057902;28;20447;-81
2022/05/31 03:19:01;;;;;;;38.23;36.27;;;9.40;99.90;;;;;;5058164;28;20462;-81
2022/05/31 03:21:33;;;;;;;65.00;61.80;;;9.40;99.90;;;;;;5057006;28;20475;-82
2022/05/31 03:24:03;;;;;;;76.57;73.17;;;9.50;99.90;;;;;;5058609;28;20535;-81
2022/05/31 03:26:32;;;;;;;82.27;78.90;;;9.50;99.90;;;;;;5057627;28;20878;-81
2022/05/31 03:29:00;;;;;;;67.73;64.67;;;9.70;99.90;;;;;;5057824;28;20456;-81
2022/05/31 03:31:28;;;;;;;27.47;25.53;;;9.40;99.90;;;;;;5057800;28;20475;-81
2022/05/31 03:33:54;;;;;;;25.70;23.90;;;9.50;99.90;;;;;;5058157;28;20523;-81
2022/05/31 03:36:21;;;;;;;18.43;17.13;;;9.50;99.90;;;;;;5058018;28;20956;-82
2022/05/31 03:38:48;;;;;;;13.93;11.47;;;9.60;99.90;;;;;;5057418;28;20454;-81
2022/05/31 03:41:15;;;;;;;16.13;13.70;;;9.40;99.50;;;;;;5057191;28;20479;-81
2022/05/31 03:43:42;;;;;;;40.83;38.53;;;9.50;99.90;;;;;;5058219;28;20479;-80
2022/05/31 03:46:11;;;;;;;23.60;21.73;;;9.50;99.90;;;;;;5058720;28;20462;-81
2022/05/31 03:48:39;;;;;;;14.60;11.40;;;9.60;99.90;;;;;;5057532;28;20455;-82
2022/05/31 03:51:08;;;;;;;10.73;8.60;;;9.60;98.80;;;;;;5057387;28;20485;-81
2022/05/31 03:53:35;;;;;;;8.57;7.50;;;9.60;97.90;;;;;;5057681;28;20448;-81
2022/05/31 03:56:04;;;;;;;10.83;9.43;;;9.60;97.90;;;;;;5057359;28;20451;-81
2022/05/31 03:58:31;;;;;;;11.67;10.30;;;9.70;97.90;;;;;;5056617;28;20542;-81
2022/05/31 04:00:58;;;;;;;14.17;10.77;;;9.80;98.20;;;;;;5056997;28;20482;-82
2022/05/31 04:03:26;;;;;;;12.90;10.23;;;9.70;97.90;;;;;;5057514;28;20849;-81
2022/05/31 04:05:55;;;;;;;9.50;8.60;;;9.70;97.90;;;;;;5057760;28;20462;-81
2022/05/31 04:08:22;;;;;;;10.20;8.57;;;9.60;97.60;;;;;;5057811;28;20452;-81
2022/05/31 04:10:49;;;;;;;8.30;7.50;;;9.90;97.10;;;;;;5057071;28;20475;-81
2022/05/31 04:13:17;;;;;;;10.57;7.87;;;9.70;97.00;;;;;;5057931;28;20447;-81
2022/05/31 04:15:45;;;;;;;8.60;7.10;;;9.80;96.20;;;;;;5057772;28;20454;-81
2022/05/31 04:18:12;;;;;;;8.47;6.30;;;9.70;95.40;;;;;;5057180;28;20459;-79
2022/05/31 04:20:41;;;;;;;9.83;4.83;;;9.70;94.10;;;;;;5057296;28;20475;-81
2022/05/31 04:26:03;;;;;;;7.23;5.00;;;9.80;93.40;;;;;;5057041;28;20805;-81
2022/05/31 04:28:30;;;;;;;7.50;4.90;;;9.80;93.70;;;;;;5057348;28;20461;-82
2022/05/31 04:30:57;;;;;;;5.77;4.20;;;9.80;93.80;;;;;;5057829;28;20481;-81
2022/05/31 04:33:23;;;;;;;6.60;4.40;;;9.90;92.80;;;;;;5057632;28;20447;-81
2022/05/31 04:35:58;;;;;;;8.40;4.77;;;10.00;92.40;;;;;;5061359;28;20455;-81
2022/05/31 04:38:27;;;;;;;6.70;4.70;;;9.90;93.00;;;;;;5060656;28;20439;-82
2022/05/31 04:40:54;;;;;;;8.17;5.30;;;10.20;92.30;;;;;;5061787;28;20471;-81
2022/05/31 04:43:21;;;;;;;5.20;4.40;;;10.00;91.30;;;;;;5060966;28;20569;-81
2022/05/31 04:45:47;;;;;;;6.80;4.13;;;10.10;92.40;;;;;;5060742;28;20534;-82
2022/05/31 04:48:14;;;;;;;9.20;5.40;;;10.20;92.00;;;;;;5060217;28;20487;-81
2022/05/31 04:50:41;;;;;;;8.90;4.80;;;10.30;91.10;;;;;;5059995;28;20483;-81
2022/05/31 04:53:08;;;;;;;7.10;4.90;;;10.30;91.10;;;;;;5060976;28;20457;-82
2022/05/31 04:55:36;;;;;;;6.60;4.10;;;10.40;90.70;;;;;;5060828;28;20823;-82
2022/05/31 04:58:03;;;;;;;6.83;4.40;;;10.40;90.40;;;;;;5061007;28;20451;-82
2022/05/31 05:00:30;;;;;;;11.73;3.90;;;10.50;89.10;;;;;;5060883;28;20447;-81
2022/05/31 05:03:00;;;;;;;7.10;4.00;;;10.60;89.90;;;;;;5060393;28;20554;-81
2022/05/31 05:05:26;;;;;;;7.97;3.87;;;10.60;87.20;;;;;;5060764;28;20451;-81
2022/05/31 05:07:53;;;;;;;5.77;3.57;;;10.80;86.10;;;;;;5061748;28;20451;-81
2022/05/31 05:10:20;;;;;;;5.33;2.90;;;10.70;85.60;;;;;;5060895;28;20451;-81
2022/05/31 05:12:48;;;;;;;8.30;4.23;;;10.70;87.00;;;;;;5060131;28;20535;-81
2022/05/31 05:15:15;;;;;;;6.70;4.43;;;10.90;86.40;;;;;;5060645;28;20460;-82
2022/05/31 05:17:42;;;;;;;9.87;5.10;;;10.80;85.40;;;;;;5062536;28;20459;-81
2022/05/31 05:20:10;;;;;;;6.97;4.10;;;10.90;85.10;;;;;;5059696;28;20455;-81
2022/05/31 05:22:37;;;;;;;7.30;3.90;;;11.10;85.60;;;;;;5061609;28;20857;-82
2022/05/31 05:25:06;;;;;;;5.10;3.67;;;11.10;85.60;;;;;;5059777;28;20463;-81
2022/05/31 05:27:32;;;;;;;7.50;4.70;;;11.20;85.70;;;;;;5059045;28;20522;-82
2022/05/31 05:32:45;;;;;;;7.60;5.53;;;11.10;91.70;;;;;;5060361;28;20454;-83
2022/05/31 05:35:12;;;;;;;9.90;6.80;;;11.20;92.80;;;;;;5060230;28;20836;-81
2022/05/31 05:37:38;;;;;;;12.20;5.97;;;11.00;92.80;;;;;;5057207;28;20944;-80
2022/05/31 05:40:06;;;;;;;7.53;6.77;;;11.10;92.80;;;;;;5057602;28;20976;-80
2022/05/31 05:42:33;;;;;;;6.90;5.87;;;11.10;93.40;;;;;;5059523;28;21014;-81
2022/05/31 05:45:03;;;;;;;11.83;7.60;;;11.00;92.50;;;;;;5056606;28;20451;-81
2022/05/31 05:47:29;;;;;;;11.07;7.73;;;11.00;93.20;;;;;;5059563;28;20478;-81
2022/05/31 05:49:56;;;;;;;12.87;11.80;;;11.00;93.80;;;;;;5060426;28;20451;-81
2022/05/31 05:52:23;;;;;;;9.30;8.40;;;11.00;94.70;;;;;;5058628;28;20487;-80
2022/05/31 05:54:50;;;;;;;7.90;4.90;;;11.00;93.60;;;;;;5058173;28;20462;-80
2022/05/31 05:57:16;;;;;;;9.80;5.13;;;10.80;91.10;;;;;;5059822;28;20861;-81
2022/05/31 05:59:43;;;;;;;6.03;4.83;;;10.80;91.60;;;;;;5068629;28;20454;-80
2022/05/31 06:02:18;;;;;;;10.13;7.20;;;10.80;92.60;;;;;;5077017;28;20474;-79
2022/05/31 06:04:48;;;;;;;19.03;6.80;;;10.70;94.60;;;;;;5079629;28;20914;-82
2022/05/31 06:07:19;;;;;;;8.17;5.67;;;10.70;93.50;;;;;;5078518;28;20454;-82
2022/05/31 06:09:52;;;;;;;7.43;4.80;;;10.50;92.00;;;;;;5080087;28;21005;-80
2022/05/31 06:12:23;;;;;;;7.70;6.13;;;10.50;91.30;;;;;;5077179;28;20949;-80
2022/05/31 06:14:53;;;;;;;15.97;14.77;;;10.40;92.00;;;;;;5076347;28;20455;-82
2022/05/31 06:17:25;;;;;;;34.07;31.97;;;10.50;95.00;;;;;;5078526;28;20458;-80
2022/05/31 06:19:51;;;;;;;44.07;42.00;;;10.60;96.20;;;;;;5079194;28;20808;-80
2022/05/31 06:22:20;;;;;;;37.40;35.38;;;10.50;96.20;;;;;;5076009;28;20458;-81
2022/05/31 06:24:47;;;;;;;80.03;76.73;;;10.50;95.50;;;;;;5078143;28;20205;-80
2022/05/31 06:27:14;;;;;;;130.33;125.53;;;10.70;98.20;;;;;;5077315;28;20466;-80
2022/05/31 06:29:40;;;;;;;155.87;150.60;;;10.70;99.90;;;;;;5077510;28;20724;-81
2022/05/31 06:32:08;;;;;;;147.67;142.57;;;10.80;99.20;;;;;;5078542;28;20473;-80
2022/05/31 06:34:37;;;;;;;99.30;95.27;;;11.00;98.00;;;;;;5077966;28;20458;-80
2022/05/31 06:37:06;;;;;;;36.17;34.30;;;11.20;97.30;;;;;;5078309;28;20454;-80
2022/05/31 06:39:35;;;;;;;14.57;13.27;;;11.40;94.00;;;;;;5077571;28;20450;-80
2022/05/31 06:42:02;;;;;;;8.97;7.90;;;11.50;91.60;;;;;;5078084;28;20466;-80
2022/05/31 06:44:32;;;;;;;8.13;6.03;;;11.80;91.70;;;;;;5078781;28;20475;-80
2022/05/31 06:46:58;;;;;;;7.20;4.47;;;12.10;84.40;;;;;;5078604;28;20450;-81
2022/05/31 06:49:25;;;;;;;9.70;4.37;;;12.50;83.10;;;;;;5078131;28;20451;-80
2022/05/31 06:57:34;;;;;;;7.17;4.37;;;12.80;74.40;;;;;;5016219;28;20437;-81
2022/05/31 07:00:00;;;;;;;10.20;4.50;;;13.30;72.00;;;;;;5061208;28;20457;-81
2022/05/31 07:02:27;;;;;;;10.83;3.80;;;14.20;68.60;;;;;;5076679;28;20834;-82
2022/05/31 07:04:54;;;;;;;9.43;3.67;;;14.30;57.70;;;;;;5079329;28;20451;-82
2022/05/31 07:07:22;;;;;;;6.50;3.30;;;14.20;62.30;;;;;;5078602;28;20454;-81
2022/05/31 07:09:49;;;;;;;7.53;4.90;;;14.20;59.50;;;;;;5077812;28;20454;-81
2022/05/31 07:12:16;;;;;;;6.63;3.60;;;14.20;59.20;;;;;;5077808;28;20485;-81
2022/05/31 07:14:43;;;;;;;13.50;4.13;;;14.60;55.20;;;;;;5078168;28;20452;-81
2022/05/31 07:17:10;;;;;;;11.57;3.43;;;15.30;55.10;;;;;;5077092;28;20488;-82
2022/05/31 07:19:40;;;;;;;6.70;2.53;;;16.20;47.30;;;;;;5078072;28;20467;-82
2022/05/31 07:22:07;;;;;;;7.70;3.17;;;17.00;41.50;;;;;;5078630;28;20848;-83
2022/05/31 07:24:35;;;;;;;8.10;2.80;;;17.20;38.30;;;;;;5077593;28;20502;-81
2022/05/31 07:27:01;;;;;;;5.70;2.80;;;16.90;32.40;;;;;;5080122;28;20461;-83
2022/05/31 07:29:30;;;;;;;5.60;2.80;;;17.00;35.60;;;;;;5079604;28;20442;-79
2022/05/31 07:31:57;;;;;;;7.43;3.20;;;17.00;32.60;;;;;;5076957;28;20485;-82
2022/05/31 07:34:25;;;;;;;6.60;2.93;;;16.70;36.30;;;;;;5079732;28;20470;-82
2022/05/31 07:36:53;;;;;;;7.37;2.90;;;16.20;33.60;;;;;;5079130;28;20479;-81
2022/05/31 07:39:22;;;;;;;10.20;2.77;;;16.20;36.00;;;;;;5077061;28;20818;-81
2022/05/31 07:41:52;;;;;;;5.80;2.97;;;16.50;38.50;;;;;;5076635;28;20531;-82
2022/05/31 07:44:20;;;;;;;10.83;3.00;;;16.60;35.80;;;;;;5078318;28;20481;-82
2022/05/31 07:46:47;;;;;;;7.13;3.27;;;16.30;34.50;;;;;;5078447;28;20477;-81
2022/05/31 07:49:15;;;;;;;6.33;3.13;;;16.20;36.90;;;;;;5078041;28;20832;-81
2022/05/31 07:51:42;;;;;;;7.07;2.63;;;16.40;36.60;;;;;;5078240;28;21025;-82
2022/05/31 07:54:09;;;;;;;9.07;3.80;;;16.50;35.30;;;;;;5078844;28;20540;-82
2022/05/31 07:56:35;;;;;;;7.30;2.83;;;16.50;36.10;;;;;;5078312;28;20865;-82
2022/05/31 07:59:04;;;;;;;8.53;3.17;;;16.40;37.60;;;;;;5078116;28;20457;-82
2022/05/31 08:01:31;;;;;;;5.00;2.50;;;16.30;35.80;;;;;;5079047;28;20473;-81
2022/05/31 08:03:58;;;;;;;6.10;2.90;;;16.30;36.30;;;;;;5078663;28;20477;-81
2022/05/31 08:06:30;;;;;;;6.17;2.80;;;16.40;35.00;;;;;;5079297;28;20456;-83
2022/05/31 08:08:57;;;;;;;10.20;3.67;;;16.50;37.00;;;;;;5082455;28;21182;-84
2022/05/31 08:11:26;;;;;;;7.40;2.90;;;16.40;38.10;;;;;;5079927;28;20487;-84
2022/05/31 08:13:54;;;;;;;11.77;3.90;;;16.50;36.00;;;;;;5079314;28;20450;-85
2022/05/31 08:16:24;;;;;;;7.37;3.37;;;16.60;36.70;;;;;;5078667;28;20452;-85
2022/05/31 08:18:52;;;;;;;10.10;3.63;;;16.60;39.70;;;;;;5078898;28;20514;-85
2022/05/31 08:21:21;;;;;;;9.33;3.20;;;16.50;39.00;;;;;;5081035;28;20475;-81
2022/05/31 08:23:48;;;;;;;7.70;3.43;;;16.30;38.70;;;;;;5082412;28;20495;-83
2022/05/31 08:26:15;;;;;;;7.53;3.40;;;16.10;40.70;;;;;;5081566;28;20450;-82
2022/05/31 08:28:42;;;;;;;6.40;3.27;;;15.90;41.40;;;;;;5081883;28;20452;-83
2022/05/31 08:31:11;;;;;;;10.60;3.67;;;16.10;42.60;;;;;;5082103;28;20472;-81
2022/05/31 08:33:41;;;;;;;7.67;3.50;;;16.00;42.70;;;;;;5082594;28;20453;-82
2022/05/31 08:36:08;;;;;;;6.90;3.87;;;16.00;43.20;;;;;;5082585;28;20954;-82
2022/05/31 08:38:35;;;;;;;8.47;3.50;;;15.90;42.90;;;;;;5081787;28;20542;-82
2022/05/31 08:41:09;;;;;;;9.23;3.43;;;16.00;43.80;;;;;;5082309;28;20479;-81
2022/05/31 08:43:53;;;;;;;7.97;3.80;;;16.40;44.50;;;;;;5082109;28;20465;-81
2022/05/31 08:46:30;;;;;;;7.77;3.80;;;16.60;41.90;;;;;;5082133;28;20432;-82
2022/05/31 08:49:00;;;;;;;7.30;3.40;;;16.30;43.70;;;;;;5080915;28;20451;-82
2022/05/31 08:51:54;;;;;;;7.43;3.43;;;16.40;42.30;;;;;;5081848;28;20587;-82
2022/05/31 08:57:20;;;;;;;7.50;3.03;;;16.90;40.00;;;;;;5082035;28;20487;-81
2022/05/31 08:59:51;;;;;;;6.87;3.20;;;17.30;40.50;;;;;;5081664;28;20450;-82
2022/05/31 09:02:24;;;;;;;7.33;3.40;;;17.50;39.10;;;;;;5082579;28;20475;-81
2022/05/31 09:05:02;;;;;;;7.67;3.23;;;17.90;36.60;;;;;;5081939;28;20477;-82
2022/05/31 09:07:35;;;;;;;5.50;2.80;;;17.80;33.20;;;;;;5082379;28;20434;-82
2022/05/31 09:10:07;;;;;;;6.13;2.77;;;18.00;33.50;;;;;;5080671;28;20462;-82
2022/05/31 09:12:42;;;;;;;8.10;3.63;;;17.60;33.50;;;;;;5081472;28;21002;-79
2022/05/31 09:15:17;;;;;;;6.40;3.37;;;17.60;34.70;;;;;;5081905;28;20818;-82
2022/05/31 09:17:54;;;;;;;7.40;3.60;;;17.40;35.60;;;;;;5081946;28;20451;-80
2022/05/31 09:20:32;;;;;;;8.20;3.80;;;17.50;35.90;;;;;;5079529;28;20802;-82
2022/05/31 09:22:59;;;;;;;6.40;3.20;;;17.70;33.10;;;;;;5082130;28;20446;-79
2022/05/31 09:25:27;;;;;;;8.50;3.63;;;18.10;33.50;;;;;;5081898;28;20474;-80
2022/05/31 09:27:54;;;;;;;10.10;3.60;;;18.30;32.40;;;;;;5080710;28;20451;-82
2022/05/31 09:30:25;;;;;;;7.37;3.37;;;18.50;30.70;;;;;;5081117;28;20481;-81
2022/05/31 09:33:04;;;;;;;6.50;3.27;;;18.60;29.80;;;;;;5082274;28;20435;-82
2022/05/31 09:35:42;;;;;;;9.33;5.10;;;18.50;28.10;;;;;;5082714;28;20467;-82
2022/05/31 09:38:44;;;;;;;18.30;3.30;;;18.50;27.70;;;;;;5080887;28;20451;-80
2022/05/31 09:41:19;;;;;;;6.50;3.00;;;19.50;26.20;;;;;;5081760;28;20477;-82
2022/05/31 09:43:49;;;;;;;6.40;3.47;;;20.60;25.50;;;;;;5082516;28;20485;-81
2022/05/31 09:46:20;;;;;;;7.23;3.40;;;21.00;25.60;;;;;;5083768;28;20457;-83
2022/05/31 09:48:48;;;;;;;6.20;2.80;;;21.90;23.90;;;;;;5083559;28;20456;-83
2022/05/31 09:51:25;;;;;;;9.80;3.83;;;22.60;17.00;;;;;;5084643;28;21017;-83
2022/05/31 09:59:25;;;;;;;9.47;4.20;;;22.40;12.20;;;;;;5083337;28;20434;-82
2022/05/31 10:01:52;;;;;;;6.70;3.50;;;22.50;11.50;;;;;;5084220;28;20984;-83
2022/05/31 10:04:26;;;;;;;6.67;2.60;;;22.80;9.10;;;;;;5084960;28;20478;-83
2022/05/31 10:06:58;;;;;;;6.50;3.10;;;23.30;5.30;;;;;;5084222;28;20527;-83
2022/05/31 10:09:30;;;;;;;8.27;3.37;;;23.30;6.90;;;;;;5083441;28;20417;-83
2022/05/31 10:12:20;;;;;;;6.67;3.60;;;22.80;9.50;;;;;;5084188;28;20473;-84
2022/05/31 10:14:49;;;;;;;6.10;2.63;;;22.90;5.40;;;;;;5084130;28;20453;-83
2022/05/31 10:17:32;;;;;;;8.70;3.60;;;23.20;6.80;;;;;;5083322;28;20506;-81
2022/05/31 10:20:16;;;;;;;7.50;3.40;;;23.50;7.00;;;;;;5083831;28;20469;-81
2022/05/31 10:23:01;;;;;;;6.87;2.90;;;22.70;5.30;;;;;;5082455;28;20521;-83
2022/05/31 10:25:39;;;;;;;6.70;3.00;;;22.30;7.70;;;;;;5079293;28;20440;-84
2022/05/31 10:28:21;;;;;;;8.73;3.70;;;22.10;6.50;;;;;;5081830;28;20442;-82
2022/05/31 10:30:53;;;;;;;11.87;3.37;;;22.00;6.00;;;;;;5082228;28;20467;-83
2022/05/31 10:33:23;;;;;;;6.67;3.33;;;22.50;6.30;;;;;;5081949;28;20825;-83
2022/05/31 10:36:07;;;;;;;10.67;3.47;;;21.90;5.90;;;;;;5082746;28;20475;-84
2022/05/31 10:38:40;;;;;;;7.40;3.30;;;21.80;6.20;;;;;;5082328;28;20433;-83
2022/05/31 10:41:08;;;;;;;7.37;3.20;;;21.60;4.40;;;;;;5083303;28;20469;-84
2022/05/31 10:43:40;;;;;;;8.77;3.20;;;22.60;6.30;;;;;;5083097;28;20473;-84
2022/05/31 10:46:12;;;;;;;7.40;3.43;;;23.80;1.70;;;;;;5082492;28;20430;-84
2022/05/31 10:48:46;;;;;;;7.03;3.33;;;24.70;2.20;;;;;;5081767;28;20521;-83
2022/05/31 10:51:22;;;;;;;8.43;3.50;;;24.80;1.00;;;;;;5081728;28;20482;-83
2022/05/31 10:54:05;;;;;;;9.70;4.43;;;25.10;1.00;;;;;;5081218;28;20508;-84
2022/05/31 10:56:39;;;;;;;6.50;3.17;;;25.00;1.00;;;;;;5081372;28;20454;-84
2022/05/31 10:59:11;;;;;;;7.97;3.50;;;25.70;1.00;;;;;;5080279;28;20439;-84
2022/05/31 11:01:51;;;;;;;9.37;3.33;;;25.90;1.00;;;;;;5081242;28;20839;-84
2022/05/31 11:04:39;;;;;;;8.33;3.17;;;26.50;1.00;;;;;;5081645;28;20511;-84
2022/05/31 11:07:16;;;;;;;10.30;3.70;;;25.30;1.00;;;;;;5080432;28;20438;-85
2022/05/31 11:12:56;;;;;;;7.73;3.43;;;26.00;1.00;;;;;;5080762;28;20446;-84
2022/05/31 11:15:32;;;;;;;6.20;2.93;;;25.10;1.00;;;;;;5085940;28;20509;-84
2022/05/31 11:18:34;;;;;;;6.30;2.27;;;26.00;1.00;;;;;;5080380;28;20450;-84
2022/05/31 11:21:09;;;;;;;6.00;2.50;;;26.50;1.00;;;;;;5079955;28;20472;-83
2022/05/31 11:23:49;;;;;;;6.03;2.67;;;25.80;1.00;;;;;;5079802;28;20441;-84
2022/05/31 11:26:46;;;;;;;5.97;2.80;;;26.60;1.00;;;;;;5078879;28;20446;-84
2022/05/31 11:29:38;;;;;;;8.17;3.20;;;27.70;1.00;;;;;;5079102;28;20468;-84
2022/05/31 11:32:24;;;;;;;6.80;2.50;;;28.40;1.00;;;;;;5079190;28;20485;-84
2022/05/31 11:35:09;;;;;;;7.33;2.73;;;27.70;1.00;;;;;;5079121;28;20911;-84
2022/05/31 11:37:47;;;;;;;5.70;2.80;;;28.20;1.00;;;;;;5080325;28;20541;-84
2022/05/31 11:40:24;;;;;;;5.80;3.00;;;28.50;1.00;;;;;;5079004;28;20438;-83
2022/05/31 11:43:11;;;;;;;6.80;2.73;;;27.70;1.00;;;;;;5080014;28;20445;-84
2022/05/31 11:45:45;;;;;;;7.00;2.53;;;27.20;1.00;;;;;;5076441;28;20898;-86
2022/05/31 11:48:35;;;;;;;5.60;2.40;;;26.20;1.00;;;;;;5074281;28;20804;-85
2022/05/31 11:51:14;;;;;;;9.80;3.37;;;25.80;1.00;;;;;;5074421;28;20482;-85
2022/05/31 11:53:54;;;;;;;8.03;3.13;;;25.00;1.00;;;;;;5079238;28;20434;-83
2022/05/31 11:56:29;;;;;;;6.20;3.67;;;25.10;1.00;;;;;;5081040;28;20434;-83
2022/05/31 11:59:01;;;;;;;5.80;2.77;;;25.70;1.00;;;;;;5079938;28;20444;-82
2022/05/31 12:01:32;;;;;;;12.33;3.10;;;27.90;1.00;;;;;;5081200;28;20470;-84
2022/05/31 12:04:06;;;;;;;11.70;3.63;;;28.50;1.00;;;;;;5075802;28;20410;-84
2022/05/31 12:06:38;;;;;;;10.13;3.97;;;28.50;1.00;;;;;;5074093;28;20981;-85
2022/05/31 12:09:14;;;;;;;12.57;4.17;;;28.00;1.00;;;;;;5076819;28;20457;-83
2022/05/31 12:11:47;;;;;;;5.90;3.00;;;29.00;1.00;;;;;;5081224;28;20477;-84
2022/05/31 12:14:16;;;;;;;6.93;3.30;;;28.60;1.00;;;;;;5081618;28;20427;-83
2022/05/31 12:16:44;;;;;;;7.70;3.17;;;28.70;1.00;;;;;;5080835;28;20465;-84
2022/05/31 12:19:18;;;;;;;7.07;3.50;;;28.90;1.00;;;;;;5080639;28;20425;-83
2022/05/31 12:21:50;;;;;;;5.03;2.30;;;28.40;1.00;;;;;;5081139;28;20476;-84
2022/05/31 12:24:21;;;;;;;8.83;2.90;;;28.00;1.00;;;;;;5081097;28;20452;-84
2022/05/31 12:26:53;;;;;;;7.13;2.67;;;27.50;1.00;;;;;;5080302;28;20463;-83
2022/05/31 12:29:26;;;;;;;5.90;2.37;;;27.00;1.00;;;;;;5081590;28;20505;-83
2022/05/31 12:32:26;;;;;;;5.87;2.63;;;26.40;1.00;;;;;;5081361;28;20470;-84
2022/05/31 12:34:53;;;;;;;6.50;2.83;;;24.90;1.00;;;;;;5081008;28;20431;-85
2022/05/31 12:37:20;;;;;;;10.10;3.13;;;24.60;1.00;;;;;;5080953;28;20431;-84
2022/05/31 12:39:50;;;;;;;6.20;2.57;;;23.90;1.00;;;;;;5080824;28;20443;-82
2022/05/31 12:42:40;;;;;;;11.50;3.00;;;23.40;1.00;;;;;;5076262;28;20478;-84
2022/05/31 12:45:24;;;;;;;38.83;6.15;;;23.10;1.00;;;;;;5073257;28;20454;-84
2022/05/31 12:47:58;;;;;;;8.07;2.70;;;22.60;1.00;;;;;;5073458;28;20203;-84
2022/05/31 12:51:07;;;;;;;13.70;3.20;;;22.70;1.00;;;;;;5072590;28;20469;-87
2022/05/31 12:53:56;;;;;;;6.70;2.60;;;22.20;1.00;;;;;;5063011;28;20456;-87
2022/05/31 12:56:56;;;;;;;5.50;2.13;;;22.30;1.00;;;;;;5070352;28;20488;-87
2022/05/31 12:59:47;;;;;;;6.93;2.43;;;22.20;1.00;;;;;;5068624;28;20533;-88
2022/05/31 13:02:37;;;;;;;6.83;2.57;;;21.50;1.00;;;;;;5075646;28;20491;-87
2022/05/31 13:05:26;;;;;;;6.90;2.40;;;21.10;1.00;;;;;;5075823;28;20446;-87
2022/05/31 13:08:21;;;;;;;6.50;2.40;;;20.80;1.00;;;;;;5075792;28;20449;-87
2022/05/31 13:19:35;;;;;;;6.53;1.97;;;21.60;1.00;;;;;;5076151;28;20461;-85
2022/05/31 13:22:06;;;;;;;6.87;2.40;;;22.30;1.00;;;;;;5076780;28;20500;-86
2022/05/31 13:24:36;;;;;;;7.30;2.80;;;22.60;1.00;;;;;;5077067;28;20461;-85
2022/05/31 13:27:07;;;;;;;5.10;2.00;;;24.00;1.00;;;;;;5075122;28;20458;-85
2022/05/31 13:29:34;;;;;;;7.80;2.47;;;25.40;1.00;;;;;;5075425;28;20450;-84
2022/05/31 13:32:01;;;;;;;5.60;2.10;;;26.10;1.00;;;;;;5075725;28;21023;-85
2022/05/31 13:34:34;;;;;;;7.83;2.40;;;26.50;1.00;;;;;;5075305;28;20454;-85
2022/05/31 13:37:03;;;;;;;6.67;2.20;;;27.00;1.00;;;;;;5075737;28;20462;-85